createdAt,value
2023-05-14T00:02:11.556Z,1.20
2023-05-14T00:04:41.090Z,1.17
2023-05-14T00:07:10.091Z,1.27
2023-05-14T00:09:38.060Z,1.23
2023-05-14T00:12:06.575Z,1.58
2023-05-14T00:14:34.960Z,1.20
2023-05-14T00:17:03.094Z,1.00
2023-05-14T00:19:31.418Z,1.33
2023-05-14T00:21:59.676Z,1.33
2023-05-14T00:24:27.755Z,0.93
2023-05-14T00:26:56.109Z,1.00
2023-05-14T00:29:24.497Z,1.50
2023-05-14T00:31:52.764Z,1.17
2023-05-14T00:34:21.287Z,1.52
2023-05-14T00:36:51.193Z,1.40
2023-05-14T00:39:19.265Z,1.37
2023-05-14T00:41:47.573Z,1.30
2023-05-14T00:44:15.871Z,1.45
2023-05-14T00:46:44.038Z,0.98
2023-05-14T00:49:13.139Z,1.00
2023-05-14T00:51:42.257Z,0.98
2023-05-14T00:54:11.109Z,1.33
2023-05-14T00:56:39.676Z,1.15
2023-05-14T00:59:08.077Z,1.00
2023-05-14T01:01:36.188Z,1.27
2023-05-14T01:04:06.080Z,1.25
2023-05-14T01:06:45.154Z,1.30
2023-05-14T01:09:29.613Z,1.05
2023-05-14T01:12:18.396Z,1.02
2023-05-14T01:14:56.967Z,1.17
2023-05-14T01:17:28.519Z,0.98
2023-05-14T01:19:56.967Z,1.15
2023-05-14T01:22:25.053Z,1.45
2023-05-14T01:24:53.296Z,1.08
2023-05-14T01:27:40.250Z,0.90
2023-05-14T01:30:34.208Z,1.10
2023-05-14T01:33:08.355Z,0.98
2023-05-14T01:35:37.336Z,1.08
2023-05-14T01:38:09.414Z,1.30
2023-05-14T01:40:37.621Z,0.77
2023-05-14T01:43:06.436Z,1.25
2023-05-14T01:45:38.076Z,1.05
2023-05-14T01:48:06.645Z,1.70
2023-05-14T01:50:35.903Z,1.17
2023-05-14T01:53:04.356Z,1.10
2023-05-14T01:55:32.832Z,1.02
2023-05-14T01:58:00.977Z,0.80
2023-05-14T02:00:31.856Z,1.05
2023-05-14T02:03:00.500Z,1.45
2023-05-14T02:05:28.681Z,1.05
2023-05-14T02:07:57.120Z,1.20
2023-05-14T02:10:25.842Z,1.37
2023-05-14T02:12:54.482Z,0.85
2023-05-14T02:15:22.508Z,0.90
2023-05-14T02:17:50.665Z,0.88
2023-05-14T02:20:19.431Z,1.50
2023-05-14T02:22:47.481Z,1.60
2023-05-14T02:25:15.633Z,1.58
2023-05-14T02:27:44.910Z,1.00
2023-05-14T02:30:13.583Z,1.30
2023-05-14T02:32:41.836Z,1.25
2023-05-14T02:35:10.444Z,0.82
2023-05-14T02:37:38.532Z,1.35
2023-05-14T02:40:07.382Z,1.02
2023-05-14T02:42:36.069Z,1.05
2023-05-14T02:45:04.478Z,0.93
2023-05-14T02:47:36.020Z,0.98
2023-05-14T02:50:06.825Z,0.95
2023-05-14T02:52:35.374Z,0.95
2023-05-14T02:55:03.461Z,1.05
2023-05-14T02:57:32.132Z,0.80
2023-05-14T03:00:00.167Z,1.00
2023-05-14T03:02:28.896Z,1.60
2023-05-14T03:04:57.918Z,1.20
2023-05-14T03:07:25.987Z,1.10
2023-05-14T03:09:54.002Z,1.08
2023-05-14T03:12:22.662Z,1.17
2023-05-14T03:14:50.719Z,1.20
2023-05-14T03:17:19.120Z,0.98
2023-05-14T03:19:47.519Z,1.05
2023-05-14T03:22:15.789Z,0.70
2023-05-14T03:24:43.846Z,1.00
2023-05-14T03:27:12.235Z,1.20
2023-05-14T03:29:40.228Z,1.00
2023-05-14T03:32:08.491Z,0.98
2023-05-14T03:34:37.043Z,0.80
2023-05-14T03:37:05.501Z,0.80
2023-05-14T03:39:33.832Z,1.20
2023-05-14T03:42:02.219Z,1.10
2023-05-14T03:44:30.379Z,0.98
2023-05-14T03:46:58.596Z,0.90
2023-05-14T03:49:27.652Z,1.10
2023-05-14T03:51:56.145Z,0.80
2023-05-14T03:54:24.202Z,1.05
2023-05-14T03:56:52.546Z,1.05
2023-05-14T03:59:20.594Z,1.00
2023-05-14T04:01:48.702Z,1.10
2023-05-14T04:04:17.173Z,0.90
2023-05-14T04:06:45.396Z,1.10
2023-05-14T04:09:13.561Z,1.12
2023-05-14T04:11:41.942Z,0.98
2023-05-14T04:14:10.405Z,0.90
2023-05-14T04:16:38.699Z,0.85
2023-05-14T04:19:07.518Z,0.80
2023-05-14T04:21:35.761Z,0.65
2023-05-14T04:24:04.030Z,1.00
2023-05-14T04:26:32.404Z,0.90
2023-05-14T04:29:03.099Z,0.60
2023-05-14T04:31:31.742Z,1.23
2023-05-14T04:34:00.522Z,1.05
2023-05-14T04:36:28.876Z,0.98
2023-05-14T04:38:57.001Z,0.73
2023-05-14T04:41:25.411Z,1.30
2023-05-14T04:43:56.389Z,0.82
2023-05-14T04:46:24.542Z,0.82
2023-05-14T04:48:53.008Z,1.10
2023-05-14T04:51:21.181Z,0.85
2023-05-14T04:53:49.286Z,1.30
2023-05-14T04:56:17.881Z,0.70
2023-05-14T04:58:46.108Z,1.10
2023-05-14T05:01:15.020Z,0.98
2023-05-14T05:03:43.501Z,1.05
2023-05-14T05:06:11.986Z,1.65
2023-05-14T05:08:40.995Z,1.12
2023-05-14T05:11:09.357Z,1.08
2023-05-14T05:13:37.496Z,1.27
2023-05-14T05:16:06.154Z,0.95
2023-05-14T05:18:34.640Z,1.20
2023-05-14T05:21:02.896Z,0.82
2023-05-14T05:23:30.919Z,0.85
2023-05-14T05:25:59.337Z,0.70
2023-05-14T05:28:27.542Z,0.90
2023-05-14T05:30:55.695Z,0.60
2023-05-14T05:33:24.087Z,0.95
2023-05-14T05:35:52.532Z,1.67
2023-05-14T05:38:20.749Z,1.17
2023-05-14T05:40:49.163Z,1.10
2023-05-14T05:43:17.411Z,1.45
2023-05-14T05:45:46.114Z,1.55
2023-05-14T05:48:14.477Z,1.10
2023-05-14T05:50:44.758Z,1.23
2023-05-14T05:53:12.990Z,1.05
2023-05-14T05:55:41.393Z,0.98
2023-05-14T05:58:09.808Z,0.90
2023-05-14T06:00:38.091Z,1.42
2023-05-14T06:03:06.496Z,1.10
2023-05-14T06:05:34.865Z,1.08
2023-05-14T06:08:03.286Z,0.88
2023-05-14T06:10:31.720Z,0.93
2023-05-14T06:13:00.005Z,1.50
2023-05-14T06:15:28.176Z,1.08
2023-05-14T06:17:56.714Z,1.00
2023-05-14T06:20:25.129Z,1.17
2023-05-14T06:22:53.377Z,1.10
2023-05-14T06:25:21.781Z,0.90
2023-05-14T06:27:49.865Z,1.40
2023-05-14T06:30:18.036Z,1.23
2023-05-14T06:32:46.451Z,0.98
2023-05-14T06:35:14.963Z,1.15
2023-05-14T06:37:43.340Z,1.20
2023-05-14T06:40:12.887Z,1.37
2023-05-14T06:42:41.074Z,0.88
2023-05-14T06:45:09.713Z,1.00
2023-05-14T06:47:38.363Z,0.70
2023-05-14T06:50:07.581Z,1.08
2023-05-14T06:52:37.666Z,1.15
2023-05-14T06:55:06.382Z,0.80
2023-05-14T06:57:34.706Z,1.33
2023-05-14T07:00:03.939Z,1.08
2023-05-14T07:02:32.252Z,1.83
2023-05-14T07:05:00.858Z,1.15
2023-05-14T07:07:29.250Z,1.20
2023-05-14T07:09:57.432Z,1.23
2023-05-14T07:12:25.924Z,1.65
2023-05-14T07:14:54.269Z,1.12
2023-05-14T07:17:22.514Z,1.15
2023-05-14T07:19:51.349Z,1.70
2023-05-14T07:22:19.813Z,1.20
2023-05-14T07:24:48.107Z,1.75
2023-05-14T07:27:17.213Z,1.23
2023-05-14T07:29:45.609Z,1.55
2023-05-14T07:32:15.592Z,1.25
2023-05-14T07:34:44.310Z,1.58
2023-05-14T07:37:12.830Z,1.05
2023-05-14T07:39:41.788Z,1.37
2023-05-14T07:42:09.866Z,1.17
2023-05-14T07:44:38.377Z,1.23
2023-05-14T07:47:08.713Z,1.35
2023-05-14T07:49:36.955Z,1.25
2023-05-14T07:52:05.665Z,1.23
2023-05-14T07:54:33.801Z,1.30
2023-05-14T07:57:02.987Z,1.12
2023-05-14T07:59:31.354Z,1.40
2023-05-14T08:01:59.613Z,1.30
2023-05-14T08:04:28.212Z,1.62
2023-05-14T08:06:58.148Z,1.10
2023-05-14T08:09:26.197Z,1.17
2023-05-14T08:11:54.647Z,1.12
2023-05-14T08:14:22.775Z,1.60
2023-05-14T08:16:51.009Z,1.10
2023-05-14T08:19:19.650Z,1.35
2023-05-14T08:21:47.791Z,1.48
2023-05-14T08:24:16.079Z,0.98
2023-05-14T08:26:44.426Z,1.48
2023-05-14T08:29:14.698Z,1.55
2023-05-14T08:31:44.826Z,1.67
2023-05-14T08:34:12.858Z,1.45
2023-05-14T08:36:40.938Z,1.70
2023-05-14T08:39:09.502Z,1.58
2023-05-14T08:41:37.808Z,1.12
2023-05-14T08:44:14.013Z,1.95
2023-05-14T08:46:42.490Z,1.27
2023-05-14T08:49:43.045Z,1.70
2023-05-14T08:52:12.843Z,1.62
2023-05-14T08:54:41.249Z,1.27
2023-05-14T08:57:11.212Z,2.20
2023-05-14T08:59:39.701Z,1.80
2023-05-14T09:02:13.386Z,2.10
2023-05-14T09:04:43.011Z,1.70
2023-05-14T09:07:11.638Z,1.80
2023-05-14T09:09:40.454Z,1.67
2023-05-14T09:12:09.352Z,1.30
2023-05-14T09:14:37.680Z,1.58
2023-05-14T09:17:05.838Z,1.30
2023-05-14T09:19:34.476Z,1.35
2023-05-14T09:22:08.130Z,1.60
2023-05-14T09:24:38.740Z,1.70
2023-05-14T09:27:07.219Z,1.50
2023-05-14T09:29:35.399Z,1.35
2023-05-14T09:32:05.733Z,1.67
2023-05-14T09:34:37.829Z,1.55
2023-05-14T09:37:07.837Z,1.50
2023-05-14T09:39:37.763Z,1.70
2023-05-14T09:42:06.436Z,1.48
2023-05-14T09:44:36.367Z,1.40
2023-05-14T09:47:04.792Z,1.40
2023-05-14T09:49:33.850Z,1.00
2023-05-14T09:52:06.868Z,1.30
2023-05-14T09:54:36.156Z,1.17
2023-05-14T09:57:04.766Z,1.30
2023-05-14T09:59:33.500Z,1.60
2023-05-14T10:02:02.482Z,1.37
2023-05-14T10:04:31.860Z,1.60
2023-05-14T10:07:01.067Z,1.75
2023-05-14T10:09:30.044Z,1.83
2023-05-14T10:12:01.202Z,1.92
2023-05-14T10:14:53.317Z,1.60
2023-05-14T10:17:23.335Z,1.67
2023-05-14T10:19:54.570Z,1.75
2023-05-14T10:22:24.518Z,1.77
2023-05-14T10:24:54.514Z,1.52
2023-05-14T10:27:23.782Z,1.73
2023-05-14T10:29:54.532Z,1.73
2023-05-14T10:32:25.645Z,1.30
2023-05-14T10:34:54.306Z,1.92
2023-05-14T10:37:26.832Z,2.33
2023-05-14T10:40:07.212Z,1.62
2023-05-14T10:42:40.595Z,1.73
2023-05-14T10:45:10.883Z,2.75
2023-05-14T10:47:41.913Z,3.28
2023-05-14T10:50:15.086Z,7.75
2023-05-14T10:52:45.574Z,2.90
2023-05-14T10:55:15.482Z,2.55
2023-05-14T10:57:45.813Z,3.12
2023-05-14T11:00:15.099Z,3.37
2023-05-14T11:02:45.163Z,1.98
2023-05-14T11:05:19.642Z,2.50
2023-05-14T11:07:49.610Z,2.30
2023-05-14T11:10:19.705Z,1.83
2023-05-14T11:12:49.984Z,1.90
2023-05-14T11:15:22.898Z,2.60
2023-05-14T11:17:52.426Z,2.83
2023-05-14T11:20:21.440Z,2.15
2023-05-14T11:22:51.838Z,2.08
2023-05-14T11:25:21.829Z,1.83
2023-05-14T11:27:50.585Z,1.60
2023-05-14T11:30:20.693Z,1.92
2023-05-14T11:32:50.175Z,1.92
2023-05-14T11:35:19.024Z,1.65
2023-05-14T11:37:52.509Z,1.50
2023-05-14T11:40:21.453Z,2.27
2023-05-14T11:42:53.334Z,1.95
2023-05-14T11:45:26.574Z,2.17
2023-05-14T11:47:55.372Z,2.12
2023-05-14T11:50:24.197Z,2.28
2023-05-14T11:52:57.457Z,2.47
2023-05-14T11:55:26.230Z,2.40
2023-05-14T11:57:54.602Z,1.95
2023-05-14T12:00:24.655Z,1.70
2023-05-14T12:02:54.519Z,1.83
2023-05-14T12:05:22.828Z,2.75
2023-05-14T12:07:51.205Z,1.65
2023-05-14T12:10:19.757Z,2.05
2023-05-14T12:12:48.489Z,2.30
2023-05-14T12:15:21.851Z,2.33
2023-05-14T12:17:51.980Z,2.20
2023-05-14T12:20:20.975Z,2.67
2023-05-14T12:22:49.458Z,2.12
2023-05-14T12:25:17.677Z,1.42
2023-05-14T12:27:45.803Z,1.70
2023-05-14T12:32:46.386Z,1.98
2023-05-14T12:35:15.177Z,1.87
2023-05-14T12:37:43.311Z,1.80
2023-05-14T12:40:11.916Z,1.67
2023-05-14T12:42:40.378Z,1.52
2023-05-14T12:45:08.858Z,2.08
2023-05-14T12:47:37.579Z,2.85
2023-05-14T12:50:07.004Z,3.40
2023-05-14T12:55:09.844Z,3.87
2023-05-14T12:57:39.457Z,3.75
2023-05-14T13:00:14.231Z,2.60
2023-05-14T13:02:43.686Z,2.40
2023-05-14T13:05:12.907Z,2.83
2023-05-14T13:07:41.606Z,4.90
2023-05-14T13:10:10.173Z,3.45
2023-05-14T13:12:38.803Z,3.47
2023-05-14T13:15:07.683Z,2.65
2023-05-14T13:17:36.324Z,2.33
2023-05-14T13:20:05.318Z,2.15
2023-05-14T13:22:33.581Z,2.03
2023-05-14T13:25:01.722Z,2.15
2023-05-14T13:27:30.559Z,2.58
2023-05-14T13:29:58.637Z,2.78
2023-05-14T13:32:26.829Z,2.70
2023-05-14T13:34:55.695Z,3.60
2023-05-14T13:37:24.672Z,3.25
2023-05-14T13:39:52.718Z,3.45
2023-05-14T13:42:21.098Z,2.90
2023-05-14T13:44:49.108Z,3.25
2023-05-14T13:47:17.207Z,2.90
2023-05-14T13:49:45.785Z,3.45
2023-05-14T13:52:14.044Z,2.85
2023-05-14T13:54:42.130Z,2.83
2023-05-14T13:57:10.986Z,2.72
2023-05-14T13:59:39.044Z,1.92
2023-05-14T14:02:08.126Z,2.10
2023-05-14T14:04:36.854Z,2.10
2023-05-14T14:07:05.032Z,2.15
2023-05-14T14:09:36.009Z,4.40
2023-05-14T14:12:04.894Z,3.10
2023-05-14T14:14:33.114Z,1.98
2023-05-14T14:17:01.346Z,1.77
2023-05-14T14:19:30.100Z,1.52
2023-05-14T14:21:58.206Z,1.67
2023-05-14T14:24:26.333Z,1.87
2023-05-14T14:26:54.769Z,2.05
2023-05-14T14:29:23.961Z,2.47
2023-05-14T14:31:52.210Z,1.70
2023-05-14T14:34:21.714Z,2.12
2023-05-14T14:36:49.877Z,2.45
2023-05-14T14:39:17.949Z,2.45
2023-05-14T14:41:47.620Z,4.47
2023-05-14T14:44:15.847Z,3.33
2023-05-14T14:46:43.962Z,2.70
2023-05-14T14:49:12.531Z,2.33
2023-05-14T14:51:40.946Z,3.15
2023-05-14T14:54:09.030Z,2.15
2023-05-14T14:56:37.801Z,1.77
2023-05-14T14:59:06.073Z,1.95
2023-05-14T15:01:34.338Z,1.92
2023-05-14T15:04:03.170Z,1.73
2023-05-14T15:06:31.349Z,1.70
2023-05-14T15:08:59.684Z,1.80
2023-05-14T15:11:29.243Z,1.60
2023-05-14T15:13:57.376Z,1.50
2023-05-14T15:16:25.555Z,2.37
2023-05-14T15:18:54.432Z,1.58
2023-05-14T15:21:22.650Z,1.40
2023-05-14T15:23:50.876Z,2.20
2023-05-14T15:26:19.502Z,1.12
2023-05-14T15:28:47.609Z,1.20
2023-05-14T15:31:16.483Z,1.60
2023-05-14T15:33:45.404Z,1.40
2023-05-14T15:36:13.730Z,1.42
2023-05-14T15:38:42.317Z,1.12
2023-05-14T15:41:10.995Z,1.25
2023-05-14T15:43:39.116Z,1.40
2023-05-14T15:46:07.196Z,1.42
2023-05-14T15:48:36.525Z,1.92
2023-05-14T15:51:04.876Z,1.50
2023-05-14T15:53:33.349Z,1.80
2023-05-14T15:56:02.425Z,1.80
2023-05-14T15:58:30.654Z,1.75
2023-05-14T16:00:58.790Z,1.60
2023-05-14T16:03:27.287Z,1.80
2023-05-14T16:05:55.575Z,0.90
2023-05-14T16:08:23.733Z,0.77
2023-05-14T16:10:52.154Z,0.85
2023-05-14T16:13:20.345Z,1.10
2023-05-14T16:15:48.507Z,0.98
2023-05-14T16:18:17.023Z,0.90
2023-05-14T16:20:45.113Z,1.58
2023-05-14T16:23:13.203Z,1.05
2023-05-14T16:25:41.756Z,1.60
2023-05-14T16:28:09.950Z,1.98
2023-05-14T16:30:38.486Z,3.00
2023-05-14T16:33:07.136Z,2.45
2023-05-14T16:35:35.214Z,1.65
2023-05-14T16:38:03.408Z,2.15
2023-05-14T16:40:32.222Z,1.75
2023-05-14T16:43:00.469Z,1.85
2023-05-14T16:45:28.661Z,2.42
2023-05-14T16:47:57.731Z,2.17
2023-05-14T16:50:25.855Z,1.80
2023-05-14T16:52:53.870Z,1.77
2023-05-14T16:55:22.551Z,0.80
2023-05-14T16:57:50.913Z,1.45
2023-05-14T17:00:19.116Z,1.67
2023-05-14T17:02:49.886Z,1.17
2023-05-14T17:05:17.961Z,3.75
2023-05-14T17:07:46.060Z,3.62
2023-05-14T17:10:14.693Z,5.57
2023-05-14T17:12:42.800Z,3.30
2023-05-14T17:15:11.737Z,1.90
2023-05-14T17:17:40.239Z,1.15
2023-05-14T17:20:09.122Z,1.12
2023-05-14T17:22:37.333Z,1.00
2023-05-14T17:25:06.369Z,1.02
2023-05-14T17:27:34.913Z,0.62
2023-05-14T17:30:03.957Z,1.10
2023-05-14T17:32:32.591Z,1.05
2023-05-14T17:35:00.925Z,0.60
2023-05-14T17:37:29.068Z,0.95
2023-05-14T17:39:57.714Z,0.85
2023-05-14T17:42:25.808Z,0.75
2023-05-14T17:44:53.998Z,0.85
2023-05-14T17:47:22.612Z,0.95
2023-05-14T17:49:53.889Z,0.98
2023-05-14T17:52:23.164Z,1.20
2023-05-14T17:54:51.728Z,0.85
2023-05-14T17:57:19.961Z,0.90
2023-05-14T17:59:48.391Z,0.60
2023-05-14T18:02:16.618Z,0.82
2023-05-14T18:04:45.251Z,6.03
2023-05-14T18:07:13.643Z,8.63
2023-05-14T18:09:41.790Z,7.25
2023-05-14T18:12:10.338Z,5.00
2023-05-14T18:14:38.539Z,3.62
2023-05-14T18:17:07.158Z,11.10
2023-05-14T18:19:36.637Z,12.15
2023-05-14T18:22:04.832Z,9.85
2023-05-14T18:24:32.975Z,4.68
2023-05-14T18:27:01.624Z,5.95
2023-05-14T18:29:30.179Z,17.52
2023-05-14T18:31:58.422Z,20.02
2023-05-14T18:34:26.889Z,10.85
2023-05-14T18:36:55.121Z,5.60
2023-05-14T18:39:24.077Z,4.62
2023-05-14T18:41:52.538Z,3.20
2023-05-14T18:44:20.797Z,10.70
2023-05-14T18:46:49.247Z,4.60
2023-05-14T18:49:18.501Z,3.22
2023-05-14T18:51:47.241Z,2.67
2023-05-14T18:54:15.846Z,2.20
2023-05-14T18:56:46.837Z,1.73
2023-05-14T18:59:15.868Z,1.67
2023-05-14T19:01:44.309Z,1.50
2023-05-14T19:04:12.649Z,1.67
2023-05-14T19:06:41.026Z,1.42
2023-05-14T19:09:10.866Z,1.40
2023-05-14T19:11:39.279Z,1.08
2023-05-14T19:14:07.377Z,1.20
2023-05-14T19:16:35.997Z,1.52
2023-05-14T19:19:04.506Z,1.73
2023-05-14T19:21:33.011Z,1.60
2023-05-14T19:24:01.377Z,2.20
2023-05-14T19:26:29.470Z,2.17
2023-05-14T19:29:00.332Z,1.67
2023-05-14T19:31:29.044Z,3.40
2023-05-14T19:33:57.512Z,3.22
2023-05-14T19:36:25.696Z,3.78
2023-05-14T19:38:54.195Z,4.10
2023-05-14T19:41:23.065Z,4.47
2023-05-14T19:43:51.347Z,3.80
2023-05-14T19:46:19.765Z,3.62
2023-05-14T19:48:49.335Z,5.47
2023-05-14T19:51:17.425Z,4.70
2023-05-14T19:53:46.425Z,5.93
2023-05-14T19:56:15.585Z,3.33
2023-05-14T19:58:44.410Z,2.30
2023-05-14T20:01:13.133Z,1.33
2023-05-14T20:03:42.001Z,1.12
2023-05-14T20:06:10.092Z,1.25
2023-05-14T20:08:38.492Z,1.42
2023-05-14T20:11:07.397Z,1.45
2023-05-14T20:13:36.525Z,1.83
2023-05-14T20:16:05.097Z,1.40
2023-05-14T20:18:33.836Z,1.10
2023-05-14T20:21:02.591Z,1.27
2023-05-14T20:23:30.880Z,1.15
2023-05-14T20:26:01.852Z,1.23
2023-05-14T20:28:30.544Z,1.25
2023-05-14T20:31:00.229Z,1.50
2023-05-14T20:33:29.227Z,1.58
2023-05-14T20:35:57.562Z,0.88
2023-05-14T20:38:29.243Z,1.05
2023-05-14T20:40:57.696Z,0.88
2023-05-14T20:43:27.598Z,0.77
2023-05-14T20:45:57.320Z,0.75
2023-05-14T20:48:26.123Z,0.90
2023-05-14T20:50:54.303Z,0.88
2023-05-14T20:53:22.606Z,0.85
2023-05-14T20:55:51.204Z,1.33
2023-05-14T20:58:20.443Z,1.02
2023-05-14T21:00:48.600Z,1.08
2023-05-14T21:03:17.113Z,0.77
2023-05-14T21:05:45.764Z,0.68
2023-05-14T21:08:13.898Z,0.77
2023-05-14T21:10:42.345Z,0.85
2023-05-14T21:13:10.524Z,1.02
2023-05-14T21:15:38.677Z,1.10
2023-05-14T21:18:07.176Z,0.60
2023-05-14T21:20:35.416Z,0.90
2023-05-14T21:23:03.779Z,0.88
2023-05-14T21:25:32.329Z,0.90
2023-05-14T21:28:00.465Z,0.90
2023-05-14T21:30:28.734Z,0.73
2023-05-14T21:32:57.468Z,1.10
2023-05-14T21:35:25.958Z,0.60
2023-05-14T21:37:54.388Z,0.50
2023-05-14T21:40:22.781Z,1.05
2023-05-14T21:42:51.009Z,0.68
2023-05-14T21:45:20.141Z,0.93
2023-05-14T21:47:49.607Z,1.00
2023-05-14T21:50:17.784Z,0.70
2023-05-14T21:52:45.922Z,0.68
2023-05-14T21:55:14.625Z,1.00
2023-05-14T21:57:42.617Z,0.60
2023-05-14T22:00:13.161Z,0.80
2023-05-14T22:02:43.609Z,0.57
2023-05-14T22:05:11.791Z,0.60
2023-05-14T22:07:40.015Z,0.88
2023-05-14T22:10:08.975Z,0.82
2023-05-14T22:12:37.066Z,0.57
2023-05-14T22:15:06.422Z,1.00
2023-05-14T22:17:35.176Z,1.02
2023-05-14T22:20:06.578Z,1.10
2023-05-14T22:22:35.193Z,1.12
2023-05-14T22:25:04.157Z,1.12
2023-05-14T22:27:32.638Z,1.00
2023-05-14T22:30:01.119Z,1.02
2023-05-14T22:32:29.485Z,1.10
2023-05-14T22:34:57.657Z,0.82
2023-05-14T22:37:26.232Z,0.95
2023-05-14T22:39:54.500Z,0.85
2023-05-14T22:42:22.660Z,0.85
2023-05-14T22:44:51.069Z,0.82
2023-05-14T22:47:19.612Z,1.00
2023-05-14T22:49:47.781Z,1.02
2023-05-14T22:52:16.130Z,0.70
2023-05-14T22:54:46.666Z,0.88
2023-05-14T22:57:14.809Z,0.90
2023-05-14T22:59:43.195Z,0.65
2023-05-14T23:02:11.351Z,0.80
2023-05-14T23:04:39.512Z,0.88
2023-05-14T23:07:08.172Z,1.10
2023-05-14T23:09:36.382Z,1.15
2023-05-14T23:12:04.788Z,0.80
2023-05-14T23:14:33.168Z,1.27
2023-05-14T23:17:01.755Z,1.75
2023-05-14T23:19:30.207Z,4.00
2023-05-14T23:21:59.452Z,4.32
2023-05-14T23:24:27.647Z,4.05
2023-05-14T23:26:56.053Z,4.22
2023-05-14T23:29:24.597Z,2.28
2023-05-14T23:31:52.985Z,1.70
2023-05-14T23:34:22.189Z,1.20
2023-05-14T23:36:51.050Z,1.20
2023-05-14T23:39:19.345Z,1.10
2023-05-14T23:41:47.377Z,1.67
2023-05-14T23:44:15.744Z,1.17
2023-05-14T23:46:44.032Z,1.50
2023-05-14T23:49:12.591Z,1.12
2023-05-14T23:51:41.028Z,1.80
2023-05-14T23:54:09.203Z,1.60
2023-05-14T23:56:37.415Z,1.20
2023-05-14T23:59:05.720Z,1.58
